createdAt,value
2023-01-09T00:01:12.333Z,1.65
2023-01-09T00:03:39.733Z,1.25
2023-01-09T00:06:07.411Z,1.55
2023-01-09T00:08:34.712Z,0.75
2023-01-09T00:11:02.104Z,1.10
2023-01-09T00:13:29.446Z,2.80
2023-01-09T00:15:56.861Z,1.55
2023-01-09T00:18:24.218Z,1.33
2023-01-09T00:20:51.886Z,2.20
2023-01-09T00:23:19.171Z,2.08
2023-01-09T00:25:46.516Z,0.82
2023-01-09T00:28:13.806Z,0.50
2023-01-09T00:30:41.202Z,1.40
2023-01-09T00:33:08.540Z,1.10
2023-01-09T00:35:35.972Z,0.85
2023-01-09T00:38:03.615Z,3.25
2023-01-09T00:40:31.016Z,1.60
2023-01-09T00:42:58.590Z,1.30
2023-01-09T00:45:29.293Z,1.48
2023-01-09T00:48:09.094Z,0.52
2023-01-09T00:50:37.732Z,2.47
2023-01-09T00:53:13.391Z,0.32
2023-01-09T00:55:41.439Z,0.88
2023-01-09T00:58:09.498Z,1.38
2023-01-09T01:00:36.963Z,0.95
2023-01-09T01:03:04.406Z,0.50
2023-01-09T01:05:50.333Z,1.02
2023-01-09T01:08:20.074Z,1.50
2023-01-09T01:10:48.715Z,1.20
2023-01-09T01:13:16.944Z,0.73
2023-01-09T01:15:46.025Z,1.13
2023-01-09T01:18:14.721Z,2.03
2023-01-09T01:20:44.351Z,1.58
2023-01-09T01:23:12.037Z,3.92
2023-01-09T01:25:41.819Z,3.88
2023-01-09T01:28:10.600Z,2.40
2023-01-09T01:30:40.660Z,1.27
2023-01-09T01:33:09.453Z,3.92
2023-01-09T01:35:37.667Z,2.45
2023-01-09T01:38:05.131Z,1.98
2023-01-09T01:40:32.918Z,1.60
2023-01-09T01:43:00.374Z,1.02
2023-01-09T01:45:29.969Z,1.45
2023-01-09T01:48:03.311Z,0.40
2023-01-09T01:50:56.466Z,0.43
2023-01-09T01:53:32.836Z,1.23
2023-01-09T01:56:09.858Z,4.63
2023-01-09T01:58:55.257Z,0.75
2023-01-09T02:01:24.618Z,2.75
2023-01-09T02:03:55.528Z,0.57
2023-01-09T02:06:23.214Z,0.70
2023-01-09T02:08:51.021Z,0.52
2023-01-09T02:11:20.335Z,0.52
2023-01-09T02:13:48.669Z,0.60
2023-01-09T02:16:28.209Z,1.08
2023-01-09T02:19:20.006Z,0.85
2023-01-09T02:22:12.831Z,0.55
2023-01-09T02:25:01.946Z,0.90
2023-01-09T02:27:32.227Z,0.93
2023-01-09T02:30:23.410Z,1.90
2023-01-09T02:32:53.840Z,1.50
2023-01-09T02:35:29.826Z,0.50
2023-01-09T02:38:03.086Z,1.10
2023-01-09T02:40:36.440Z,0.43
2023-01-09T02:43:05.528Z,1.52
2023-01-09T02:45:32.938Z,0.88
2023-01-09T02:48:00.364Z,0.68
2023-01-09T02:50:35.748Z,4.88
2023-01-09T02:53:44.424Z,0.65
2023-01-09T02:56:24.051Z,0.80
2023-01-09T02:59:00.677Z,1.50
2023-01-09T03:02:00.831Z,1.83
2023-01-09T03:04:53.655Z,2.75
2023-01-09T03:07:34.649Z,3.05
2023-01-09T03:10:25.391Z,5.57
2023-01-09T03:12:54.845Z,3.70
2023-01-09T03:15:28.952Z,4.03
2023-01-09T03:17:57.382Z,3.20
2023-01-09T03:20:29.741Z,3.65
2023-01-09T03:23:00.028Z,5.85
2023-01-09T03:25:29.257Z,4.75
2023-01-09T03:27:59.838Z,3.50
2023-01-09T03:30:28.906Z,3.70
2023-01-09T03:32:57.301Z,13.68
2023-01-09T03:35:25.507Z,12.55
2023-01-09T03:37:52.933Z,4.93
2023-01-09T03:40:21.036Z,3.75
2023-01-09T03:42:48.463Z,5.30
2023-01-09T03:45:15.886Z,3.67
2023-01-09T03:47:43.306Z,3.90
2023-01-09T03:50:10.917Z,4.38
2023-01-09T03:52:38.301Z,3.78
2023-01-09T03:55:05.925Z,5.50
2023-01-09T03:57:33.166Z,4.53
2023-01-09T04:00:00.514Z,3.90
2023-01-09T04:02:27.968Z,3.55
2023-01-09T04:04:55.292Z,3.78
2023-01-09T04:07:22.689Z,4.47
2023-01-09T04:09:50.038Z,3.97
2023-01-09T04:12:17.428Z,4.50
2023-01-09T04:14:44.906Z,4.65
2023-01-09T04:17:12.305Z,5.70
2023-01-09T04:19:39.687Z,4.10
2023-01-09T04:22:07.295Z,4.60
2023-01-09T04:24:34.663Z,4.60
2023-01-09T04:27:02.023Z,4.85
2023-01-09T04:29:29.338Z,4.68
2023-01-09T04:31:56.694Z,4.03
2023-01-09T04:34:25.681Z,5.72
2023-01-09T04:36:53.995Z,4.57
2023-01-09T04:39:22.192Z,5.05
2023-01-09T04:41:49.638Z,4.25
2023-01-09T04:44:19.189Z,4.43
2023-01-09T04:46:46.745Z,5.07
2023-01-09T04:49:14.573Z,4.93
2023-01-09T04:51:41.964Z,4.88
2023-01-09T04:54:09.651Z,4.97
2023-01-09T04:56:38.575Z,4.85
2023-01-09T04:59:07.245Z,5.15
2023-01-09T05:01:34.938Z,4.55
2023-01-09T05:04:02.724Z,5.05
2023-01-09T05:06:30.576Z,5.18
2023-01-09T05:08:58.666Z,5.65
2023-01-09T05:11:26.585Z,4.72
2023-01-09T05:13:54.291Z,5.88
2023-01-09T05:16:21.869Z,5.05
2023-01-09T05:18:49.327Z,6.07
2023-01-09T05:21:16.669Z,5.10
2023-01-09T05:23:44.037Z,5.78
2023-01-09T05:26:11.346Z,5.15
2023-01-09T05:28:39.145Z,4.82
2023-01-09T05:31:06.452Z,5.85
2023-01-09T05:33:33.761Z,5.30
2023-01-09T05:36:01.087Z,5.13
2023-01-09T05:38:28.487Z,3.70
2023-01-09T05:40:55.837Z,4.10
2023-01-09T05:43:23.190Z,4.22
2023-01-09T05:45:50.610Z,4.95
2023-01-09T05:48:18.050Z,6.10
2023-01-09T05:50:45.723Z,6.35
2023-01-09T05:53:13.112Z,6.93
2023-01-09T05:55:40.425Z,5.63
2023-01-09T05:58:07.763Z,3.97
2023-01-09T06:00:35.786Z,3.85
2023-01-09T06:03:03.210Z,4.40
2023-01-09T06:05:30.598Z,6.15
2023-01-09T06:07:58.047Z,3.33
2023-01-09T06:10:25.478Z,3.95
2023-01-09T06:12:54.633Z,3.22
2023-01-09T06:15:22.016Z,5.57
2023-01-09T06:17:49.467Z,4.18
2023-01-09T06:20:16.817Z,4.80
2023-01-09T06:22:45.400Z,3.30
2023-01-09T06:25:13.599Z,4.03
2023-01-09T06:27:41.146Z,3.42
2023-01-09T06:30:10.558Z,4.10
2023-01-09T06:32:37.941Z,3.90
2023-01-09T06:35:05.559Z,3.95
2023-01-09T06:37:33.432Z,5.43
2023-01-09T06:40:00.795Z,4.40
2023-01-09T06:42:28.179Z,3.67
2023-01-09T06:44:55.507Z,3.90
2023-01-09T06:47:22.883Z,4.40
2023-01-09T06:49:50.555Z,5.32
2023-01-09T06:52:18.027Z,5.20
2023-01-09T06:54:45.381Z,4.80
2023-01-09T06:57:14.551Z,4.72
2023-01-09T06:59:41.931Z,3.88
2023-01-09T07:02:18.430Z,4.32
2023-01-09T07:04:45.762Z,4.68
2023-01-09T07:07:13.687Z,5.30
2023-01-09T07:09:41.028Z,4.47
2023-01-09T07:12:08.488Z,4.25
2023-01-09T07:14:36.333Z,5.68
2023-01-09T07:17:03.849Z,4.75
2023-01-09T07:19:31.145Z,5.68
2023-01-09T07:21:58.557Z,5.20
2023-01-09T07:24:25.891Z,5.22
2023-01-09T07:26:53.273Z,4.30
2023-01-09T07:29:20.622Z,4.28
2023-01-09T07:31:48.200Z,6.88
2023-01-09T07:34:15.537Z,5.65
2023-01-09T07:36:46.457Z,6.50
2023-01-09T07:39:14.308Z,5.03
2023-01-09T07:41:41.824Z,4.65
2023-01-09T07:44:11.365Z,6.50
2023-01-09T07:46:39.126Z,4.28
2023-01-09T07:49:06.856Z,4.57
2023-01-09T07:51:34.650Z,4.75
2023-01-09T07:54:02.046Z,5.43
2023-01-09T07:56:29.350Z,4.22
2023-01-09T07:58:56.710Z,4.53
2023-01-09T08:01:24.180Z,5.75
2023-01-09T08:03:51.617Z,7.05
2023-01-09T08:06:19.061Z,6.20
2023-01-09T08:08:46.427Z,5.97
2023-01-09T08:11:13.785Z,6.63
2023-01-09T08:13:41.256Z,7.50
2023-01-09T08:16:08.790Z,6.03
2023-01-09T08:18:36.234Z,8.10
2023-01-09T08:21:03.629Z,9.07
2023-01-09T08:23:31.086Z,5.85
2023-01-09T08:25:58.444Z,6.85
2023-01-09T08:28:25.824Z,6.72
2023-01-09T08:30:53.217Z,6.38
2023-01-09T08:33:20.571Z,7.10
2023-01-09T08:35:48.141Z,7.85
2023-01-09T08:38:15.473Z,6.80
2023-01-09T08:40:42.829Z,7.00
2023-01-09T08:43:29.063Z,6.78
2023-01-09T08:46:19.464Z,8.18
2023-01-09T08:48:48.399Z,7.75
2023-01-09T08:51:15.802Z,6.75
2023-01-09T08:53:43.177Z,6.68
2023-01-09T08:56:10.533Z,6.38
2023-01-09T08:58:37.910Z,7.53
2023-01-09T09:01:07.090Z,8.68
2023-01-09T09:03:34.482Z,5.63
2023-01-09T09:06:02.193Z,6.30
2023-01-09T09:08:29.585Z,6.43
2023-01-09T09:10:57.437Z,6.05
2023-01-09T09:13:24.743Z,8.02
2023-01-09T09:15:52.102Z,5.47
2023-01-09T09:18:19.464Z,6.05
2023-01-09T09:20:46.801Z,6.18
2023-01-09T09:23:14.182Z,6.40
2023-01-09T09:25:41.610Z,6.88
2023-01-09T09:28:09.539Z,6.35
2023-01-09T09:30:38.742Z,7.00
2023-01-09T09:35:36.739Z,7.60
2023-01-09T09:38:05.835Z,6.32
2023-01-09T09:40:53.486Z,7.15
2023-01-09T09:43:59.637Z,6.57
2023-01-09T09:46:47.728Z,5.53
2023-01-09T09:49:23.121Z,4.95
2023-01-09T09:52:00.520Z,5.60
2023-01-09T09:54:35.414Z,6.75
2023-01-09T09:57:05.207Z,4.97
2023-01-09T09:59:36.906Z,5.18
2023-01-09T10:02:22.053Z,4.68
2023-01-09T10:04:55.503Z,5.45
2023-01-09T10:07:30.969Z,4.47
2023-01-09T10:10:02.060Z,6.47
2023-01-09T10:12:31.648Z,5.30
2023-01-09T10:15:14.021Z,5.65
2023-01-09T10:18:04.556Z,6.60
2023-01-09T10:20:49.570Z,7.10
2023-01-09T10:23:16.930Z,7.90
2023-01-09T10:26:02.803Z,7.75
2023-01-09T10:28:54.700Z,6.38
2023-01-09T10:31:45.923Z,7.57
2023-01-09T10:34:53.019Z,8.60
2023-01-09T10:37:36.334Z,6.65
2023-01-09T10:40:20.889Z,5.22
2023-01-09T10:43:03.059Z,6.53
2023-01-09T10:48:17.698Z,6.13
2023-01-09T10:50:47.524Z,7.00
2023-01-09T10:53:23.873Z,5.43
2023-01-09T10:55:55.960Z,5.45
2023-01-09T10:58:23.548Z,5.20
2023-01-09T11:00:51.485Z,3.97
2023-01-09T11:03:22.355Z,4.68
2023-01-09T11:05:55.765Z,6.25
2023-01-09T11:08:30.827Z,5.20
2023-01-09T11:11:00.557Z,6.65
2023-01-09T11:13:29.430Z,5.75
2023-01-09T11:16:22.024Z,5.70
2023-01-09T11:19:01.140Z,6.68
2023-01-09T11:21:38.062Z,6.57
2023-01-09T11:24:26.402Z,7.78
2023-01-09T11:27:14.889Z,5.60
2023-01-09T11:29:42.644Z,6.03
2023-01-09T11:32:36.470Z,6.93
2023-01-09T11:35:15.488Z,7.55
2023-01-09T11:37:44.001Z,9.48
2023-01-09T11:40:20.421Z,8.30
2023-01-09T11:43:11.693Z,9.90
2023-01-09T11:45:53.248Z,10.65
2023-01-09T11:48:38.374Z,11.18
2023-01-09T11:51:18.000Z,12.32
2023-01-09T11:54:08.722Z,13.52
2023-01-09T11:56:39.484Z,12.80
2023-01-09T11:59:15.777Z,13.52
2023-01-09T12:02:10.619Z,14.45
2023-01-09T12:05:10.923Z,14.25
2023-01-09T12:08:18.049Z,14.25
2023-01-09T12:10:51.442Z,12.07
2023-01-09T12:13:37.156Z,12.40
2023-01-09T12:16:16.043Z,13.32
2023-01-09T12:18:58.605Z,15.95
2023-01-09T12:21:29.031Z,12.32
2023-01-09T12:24:20.849Z,16.27
2023-01-09T12:27:17.351Z,15.63
2023-01-09T12:30:34.595Z,18.45
2023-01-09T12:33:26.904Z,16.52
2023-01-09T12:38:49.059Z,15.77
2023-01-09T12:41:23.095Z,17.05
2023-01-09T12:44:02.757Z,14.43
2023-01-09T12:46:45.812Z,16.27
2023-01-09T12:49:35.005Z,14.30
2023-01-09T12:52:23.434Z,13.30
2023-01-09T12:55:14.955Z,11.98
2023-01-09T12:57:50.866Z,12.95
2023-01-09T13:00:30.455Z,11.32
2023-01-09T13:03:12.797Z,9.80
2023-01-09T13:05:42.803Z,10.13
2023-01-09T13:08:34.361Z,11.18
2023-01-09T13:11:20.503Z,9.75
2023-01-09T13:13:57.147Z,9.70
2023-01-09T13:16:41.552Z,10.13
2023-01-09T13:19:23.915Z,9.57
2023-01-09T13:22:03.707Z,9.93
2023-01-09T13:24:38.768Z,10.07
2023-01-09T13:27:10.756Z,8.68
2023-01-09T13:32:23.338Z,8.68
2023-01-09T13:34:54.944Z,11.80
2023-01-09T13:43:09.862Z,7.75
2023-01-09T13:45:38.734Z,9.27
2023-01-09T13:48:14.508Z,8.77
2023-01-09T13:50:42.306Z,8.07
2023-01-09T13:53:18.776Z,10.68
2023-01-09T13:56:12.217Z,8.18
2023-01-09T13:58:40.534Z,8.27
2023-01-09T14:01:39.928Z,8.70
2023-01-09T14:04:14.929Z,8.43
2023-01-09T14:06:44.985Z,8.93
2023-01-09T14:09:18.361Z,8.63
2023-01-09T14:11:47.547Z,7.40
2023-01-09T14:14:25.779Z,7.47
2023-01-09T14:16:53.285Z,7.22
2023-01-09T14:19:28.543Z,9.65
2023-01-09T14:21:57.804Z,9.43
2023-01-09T14:24:52.460Z,8.40
2023-01-09T14:27:57.003Z,9.00
2023-01-09T14:30:27.177Z,8.13
2023-01-09T14:33:19.403Z,8.10
2023-01-09T14:38:53.303Z,10.50
2023-01-09T14:41:45.772Z,10.80
2023-01-09T14:44:19.612Z,8.63
2023-01-09T14:46:49.960Z,9.48
2023-01-09T14:49:41.828Z,11.10
2023-01-09T14:52:37.725Z,9.07
2023-01-09T14:55:19.663Z,11.30
2023-01-09T14:57:52.126Z,12.18
2023-01-09T15:00:19.703Z,12.20
2023-01-09T15:02:48.503Z,12.98
2023-01-09T15:05:22.590Z,12.88
2023-01-09T15:07:58.277Z,9.52
2023-01-09T15:10:30.697Z,12.95
2023-01-09T15:13:01.820Z,12.48
2023-01-09T15:15:29.312Z,11.03
2023-01-09T15:18:05.594Z,13.30
2023-01-09T15:20:34.303Z,10.02
2023-01-09T15:23:04.273Z,10.38
2023-01-09T15:25:39.385Z,10.50
2023-01-09T15:28:25.318Z,10.80
2023-01-09T15:31:16.460Z,14.40
2023-01-09T15:33:46.211Z,10.57
2023-01-09T15:36:21.795Z,12.02
2023-01-09T15:38:50.354Z,11.68
2023-01-09T15:41:42.423Z,17.73
2023-01-09T15:44:22.938Z,10.73
2023-01-09T15:46:51.934Z,13.60
2023-01-09T15:49:20.243Z,13.20
2023-01-09T15:51:48.948Z,12.75
2023-01-09T15:54:21.142Z,11.77
2023-01-09T15:56:48.548Z,15.65
2023-01-09T15:59:27.716Z,14.07
2023-01-09T16:02:20.266Z,15.23
2023-01-09T16:04:48.904Z,15.23
2023-01-09T16:07:19.828Z,13.10
2023-01-09T16:09:52.582Z,16.38
2023-01-09T16:12:25.807Z,15.75
2023-01-09T16:14:56.353Z,13.40
2023-01-09T16:17:26.827Z,18.02
2023-01-09T16:20:11.747Z,16.92
2023-01-09T16:22:54.095Z,16.35
2023-01-09T16:25:31.508Z,11.43
2023-01-09T16:28:26.991Z,17.83
2023-01-09T16:31:00.614Z,12.05
2023-01-09T16:33:31.088Z,12.98
2023-01-09T16:35:58.973Z,9.07
2023-01-09T16:38:26.821Z,8.30
2023-01-09T16:41:20.005Z,11.10
2023-01-09T16:43:47.999Z,8.80
2023-01-09T16:46:16.962Z,9.93
2023-01-09T16:48:45.300Z,9.13
2023-01-09T16:51:18.433Z,10.20
2023-01-09T16:53:45.772Z,10.32
2023-01-09T16:56:23.376Z,12.73
2023-01-09T16:58:52.703Z,12.43
2023-01-09T17:01:20.948Z,13.00
2023-01-09T17:03:49.061Z,13.48
2023-01-09T17:06:29.073Z,14.57
2023-01-09T17:08:57.054Z,13.90
2023-01-09T17:11:31.995Z,15.23
2023-01-09T17:14:02.992Z,22.10
2023-01-09T17:16:30.638Z,18.60
2023-01-09T17:18:58.059Z,18.50
2023-01-09T17:21:29.131Z,19.90
2023-01-09T17:24:18.652Z,17.88
2023-01-09T17:27:09.380Z,21.55
2023-01-09T17:29:37.217Z,20.25
2023-01-09T17:32:05.063Z,18.38
2023-01-09T17:34:33.754Z,18.88
2023-01-09T17:37:03.604Z,18.75
2023-01-09T17:39:31.746Z,17.75
2023-01-09T17:42:01.834Z,18.27
2023-01-09T17:44:29.633Z,21.13
2023-01-09T17:46:57.043Z,17.80
2023-01-09T17:49:24.643Z,20.20
2023-01-09T17:51:52.115Z,19.15
2023-01-09T17:54:21.219Z,20.60
2023-01-09T17:56:51.050Z,18.67
2023-01-09T17:59:18.777Z,18.40
2023-01-09T18:01:47.139Z,17.35
2023-01-09T18:04:14.552Z,20.63
2023-01-09T18:06:41.839Z,18.58
2023-01-09T18:09:15.310Z,17.45
2023-01-09T18:11:44.063Z,18.92
2023-01-09T18:14:13.660Z,20.17
2023-01-09T18:16:41.411Z,18.83
2023-01-09T18:19:09.399Z,19.92
2023-01-09T18:21:36.793Z,25.95
2023-01-09T18:24:04.437Z,31.05
2023-01-09T18:26:31.802Z,25.38
2023-01-09T18:29:00.484Z,23.02
2023-01-09T18:31:28.516Z,26.17
2023-01-09T18:33:57.912Z,18.80
2023-01-09T18:36:30.856Z,25.55
2023-01-09T18:39:00.212Z,24.02
2023-01-09T18:41:28.832Z,23.52
2023-01-09T18:43:59.319Z,21.77
2023-01-09T18:46:30.699Z,24.50
2023-01-09T18:49:00.449Z,23.75
2023-01-09T18:51:28.983Z,30.38
2023-01-09T18:53:56.708Z,25.27
2023-01-09T18:56:24.872Z,21.00
2023-01-09T18:58:57.294Z,22.67
2023-01-09T19:01:28.661Z,24.73
2023-01-09T19:03:57.757Z,21.45
2023-01-09T19:06:26.198Z,28.05
2023-01-09T19:08:54.986Z,38.95
2023-01-09T19:11:22.400Z,38.15
2023-01-09T19:13:50.649Z,42.47
2023-01-09T19:16:18.580Z,38.38
2023-01-09T19:18:46.081Z,38.10
2023-01-09T19:21:14.946Z,33.50
2023-01-09T19:23:44.136Z,30.80
2023-01-09T19:26:31.143Z,31.33
2023-01-09T19:28:59.391Z,27.42
2023-01-09T19:31:29.075Z,27.42
2023-01-09T19:33:57.539Z,28.65
2023-01-09T19:36:25.355Z,24.98
2023-01-09T19:39:00.396Z,27.38
2023-01-09T19:41:28.934Z,28.27
2023-01-09T19:43:56.576Z,25.75
2023-01-09T19:46:25.514Z,27.80
2023-01-09T19:48:53.486Z,24.40
2023-01-09T19:51:21.996Z,49.30
2023-01-09T19:56:28.972Z,25.95
2023-01-09T19:58:59.061Z,26.50
2023-01-09T20:01:34.928Z,21.80
2023-01-09T20:04:07.739Z,22.98
2023-01-09T20:06:35.381Z,20.10
2023-01-09T20:09:04.971Z,18.88
2023-01-09T20:11:32.832Z,20.23
2023-01-09T20:14:01.235Z,24.05
2023-01-09T20:16:30.608Z,21.20
2023-01-09T20:19:00.280Z,18.27
2023-01-09T20:21:28.683Z,19.08
2023-01-09T20:23:59.366Z,18.52
2023-01-09T20:26:28.565Z,20.05
2023-01-09T20:28:56.898Z,14.68
2023-01-09T20:31:28.290Z,15.80
2023-01-09T20:33:55.800Z,22.10
2023-01-09T20:36:27.579Z,12.52
2023-01-09T20:38:59.451Z,12.85
2023-01-09T20:41:29.366Z,15.30
2023-01-09T20:44:00.269Z,12.45
2023-01-09T20:46:31.020Z,15.52
2023-01-09T20:48:59.964Z,14.35
2023-01-09T20:51:27.601Z,13.10
2023-01-09T20:53:58.522Z,12.73
2023-01-09T20:56:27.813Z,13.40
2023-01-09T20:58:56.285Z,13.88
2023-01-09T21:01:24.910Z,14.30
2023-01-09T21:03:54.179Z,14.23
2023-01-09T21:06:24.408Z,12.02
2023-01-09T21:08:53.264Z,11.75
2023-01-09T21:11:22.207Z,11.68
2023-01-09T21:13:50.299Z,13.35
2023-01-09T21:16:24.130Z,13.10
2023-01-09T21:18:52.463Z,15.60
2023-01-09T21:21:23.362Z,21.23
2023-01-09T21:23:56.894Z,20.98
2023-01-09T21:26:28.275Z,18.90
2023-01-09T21:28:57.839Z,22.70
2023-01-09T21:31:34.433Z,22.08
2023-01-09T21:34:05.002Z,22.45
2023-01-09T21:36:32.813Z,25.00
2023-01-09T21:39:00.473Z,19.58
2023-01-09T21:41:46.332Z,25.75
2023-01-09T21:44:32.225Z,24.88
2023-01-09T21:47:01.235Z,23.48
2023-01-09T21:49:31.394Z,25.30
2023-01-09T21:51:58.809Z,25.00
2023-01-09T21:54:26.558Z,24.92
2023-01-09T21:56:54.764Z,26.58
2023-01-09T21:59:22.942Z,23.77
2023-01-09T22:01:51.084Z,24.63
2023-01-09T22:04:21.127Z,24.95
2023-01-09T22:06:49.337Z,27.00
2023-01-09T22:09:16.761Z,24.35
2023-01-09T22:11:44.626Z,26.42
2023-01-09T22:14:17.178Z,25.75
2023-01-09T22:16:45.580Z,23.08
2023-01-09T22:19:14.349Z,27.05
2023-01-09T22:21:41.705Z,29.27
2023-01-09T22:24:12.777Z,28.48
2023-01-09T22:26:40.234Z,33.05
2023-01-09T22:29:07.688Z,31.73
2023-01-09T22:31:35.394Z,25.38
2023-01-09T22:34:02.833Z,30.40
2023-01-09T22:36:31.278Z,29.60
2023-01-09T22:38:59.944Z,30.65
2023-01-09T22:41:29.714Z,23.85
2023-01-09T22:43:57.662Z,27.73
2023-01-09T22:46:25.758Z,27.40
2023-01-09T22:48:53.207Z,26.50
2023-01-09T22:51:21.734Z,29.50
2023-01-09T22:53:49.876Z,30.15
2023-01-09T22:56:19.649Z,26.67
2023-01-09T22:58:54.151Z,30.20
2023-01-09T23:01:22.599Z,26.05
2023-01-09T23:03:50.206Z,25.98
2023-01-09T23:06:20.915Z,24.50
2023-01-09T23:08:50.829Z,23.75
2023-01-09T23:11:45.551Z,27.95
2023-01-09T23:14:13.273Z,28.75
2023-01-09T23:16:41.371Z,27.27
2023-01-09T23:19:09.950Z,25.17
2023-01-09T23:21:37.445Z,25.42
2023-01-09T23:24:07.085Z,24.90
2023-01-09T23:26:35.720Z,28.00
2023-01-09T23:29:06.992Z,26.88
2023-01-09T23:31:35.590Z,25.02
2023-01-09T23:34:04.686Z,28.30
2023-01-09T23:36:32.145Z,27.80
2023-01-09T23:38:59.738Z,27.48
2023-01-09T23:41:47.137Z,22.70
2023-01-09T23:44:14.538Z,23.17
2023-01-09T23:46:41.938Z,26.23
2023-01-09T23:49:09.913Z,26.38
2023-01-09T23:51:37.289Z,27.05
2023-01-09T23:54:04.900Z,22.67
2023-01-09T23:56:33.992Z,23.92
2023-01-09T23:59:02.255Z,23.05
